createdAt,value
2018-05-03T00:01:26.865Z,97.20
2018-05-03T00:03:55.809Z,97.30
2018-05-03T00:06:24.415Z,97.20
2018-05-03T00:08:52.923Z,97.10
2018-05-03T00:11:21.545Z,96.90
2018-05-03T00:13:51.032Z,96.80
2018-05-03T00:16:19.626Z,96.80
2018-05-03T00:18:48.170Z,96.70
2018-05-03T00:21:17.590Z,96.50
2018-05-03T00:23:46.132Z,96.50
2018-05-03T00:26:14.844Z,96.50
2018-05-03T00:28:43.421Z,96.20
2018-05-03T00:31:13.436Z,96.10
2018-05-03T00:33:42.518Z,96.10
2018-05-03T00:36:12.356Z,95.90
2018-05-03T00:38:41.512Z,96.00
2018-05-03T00:41:10.183Z,96.10
2018-05-03T00:43:38.696Z,96.00
2018-05-03T00:46:07.426Z,96.10
2018-05-03T00:48:36.158Z,96.00
2018-05-03T00:51:05.475Z,95.90
2018-05-03T00:53:34.961Z,95.90
2018-05-03T00:56:03.595Z,95.90
2018-05-03T00:58:32.989Z,95.80
2018-05-03T01:01:01.680Z,95.80
2018-05-03T01:03:31.033Z,95.70
2018-05-03T01:06:00.107Z,95.80
2018-05-03T01:08:28.727Z,95.90
2018-05-03T01:10:57.328Z,96.00
2018-05-03T01:13:26.022Z,96.00
2018-05-03T01:15:54.648Z,96.10
2018-05-03T01:18:23.265Z,96.00
2018-05-03T01:20:51.828Z,96.10
2018-05-03T01:23:20.498Z,96.20
2018-05-03T01:25:49.089Z,96.10
2018-05-03T01:28:17.695Z,96.20
2018-05-03T01:30:46.356Z,96.00
2018-05-03T01:33:14.938Z,96.00
2018-05-03T01:36:02.208Z,96.20
2018-05-03T01:38:30.898Z,96.20
2018-05-03T01:40:59.563Z,96.40
2018-05-03T01:43:28.185Z,96.20
2018-05-03T01:45:57.561Z,95.80
2018-05-03T01:48:26.234Z,95.80
2018-05-03T01:50:54.901Z,95.80
2018-05-03T01:53:23.976Z,96.00
2018-05-03T01:55:53.392Z,96.20
2018-05-03T01:58:22.371Z,95.90
2018-05-03T02:00:51.707Z,95.90
2018-05-03T02:03:21.117Z,95.70
2018-05-03T02:05:50.420Z,95.30
2018-05-03T02:08:18.998Z,95.30
2018-05-03T02:10:47.678Z,95.30
2018-05-03T02:13:16.287Z,95.30
2018-05-03T02:15:45.027Z,95.10
2018-05-03T02:18:13.661Z,95.20
2018-05-03T02:20:42.193Z,95.10
2018-05-03T02:23:11.689Z,94.90
2018-05-03T02:25:40.609Z,94.90
2018-05-03T02:28:10.008Z,95.00
2018-05-03T02:30:38.898Z,95.00
2018-05-03T02:33:07.565Z,95.20
2018-05-03T02:35:36.970Z,95.40
2018-05-03T02:38:06.452Z,95.40
2018-05-03T02:40:35.083Z,95.40
2018-05-03T02:43:03.705Z,95.50
2018-05-03T02:45:32.372Z,95.60
2018-05-03T02:48:00.987Z,95.80
2018-05-03T02:50:29.657Z,96.10
2018-05-03T02:52:58.269Z,96.30
2018-05-03T02:55:26.981Z,96.20
2018-05-03T02:58:18.779Z,96.30
2018-05-03T03:01:11.625Z,96.60
2018-05-03T03:04:04.700Z,96.60
2018-05-03T03:06:56.730Z,96.60
2018-05-03T03:16:43.237Z,96.70
2018-05-03T03:19:29.772Z,96.00
2018-05-03T03:22:21.831Z,95.40
2018-05-03T03:29:21.651Z,94.80
2018-05-03T03:32:13.657Z,94.80
2018-05-03T03:34:43.237Z,94.40
2018-05-03T03:37:39.761Z,94.40
2018-05-03T03:40:26.204Z,94.30
2018-05-03T03:46:17.591Z,94.10
2018-05-03T03:48:46.446Z,94.00
2018-05-03T03:51:15.214Z,94.00
2018-05-03T03:53:44.072Z,93.50
2018-05-03T03:56:12.681Z,93.60
2018-05-03T03:58:41.311Z,93.10
2018-05-03T04:01:10.218Z,93.20
2018-05-03T04:03:39.643Z,93.20
2018-05-03T04:06:08.866Z,93.40
2018-05-03T04:08:38.001Z,93.60
2018-05-03T04:11:06.630Z,93.90
2018-05-03T04:13:36.086Z,94.00
2018-05-03T04:16:04.882Z,93.80
2018-05-03T04:18:52.510Z,94.30
2018-05-03T04:21:39.746Z,94.30
2018-05-03T04:24:27.280Z,94.30
2018-05-03T04:26:55.931Z,93.90
2018-05-03T04:29:24.570Z,94.00
2018-05-03T04:31:53.997Z,93.40
2018-05-03T04:34:22.695Z,93.40
2018-05-03T04:36:52.169Z,93.00
2018-05-03T04:39:20.757Z,93.00
2018-05-03T04:41:49.397Z,93.00
2018-05-03T04:44:18.052Z,93.20
2018-05-03T04:46:46.689Z,93.00
2018-05-03T04:49:15.346Z,93.10
2018-05-03T04:51:44.921Z,93.00
2018-05-03T04:54:15.239Z,93.00
2018-05-03T04:56:44.160Z,93.20
2018-05-03T04:59:12.844Z,93.60
2018-05-03T05:01:42.442Z,93.60
2018-05-03T05:04:11.071Z,93.50
2018-05-03T05:06:40.526Z,93.40
2018-05-03T05:09:09.157Z,93.40
2018-05-03T05:11:37.900Z,93.60
2018-05-03T05:14:07.415Z,94.00
2018-05-03T05:16:36.037Z,94.00
2018-05-03T05:19:04.628Z,94.20
2018-05-03T05:21:33.454Z,94.20
2018-05-03T05:24:03.365Z,93.90
2018-05-03T05:26:32.390Z,93.90
2018-05-03T05:29:01.209Z,93.70
2018-05-03T05:31:29.804Z,93.90
2018-05-03T05:33:58.631Z,93.40
2018-05-03T05:36:27.993Z,93.80
2018-05-03T05:38:56.807Z,93.70
2018-05-03T05:41:25.379Z,93.80
2018-05-03T05:43:54.716Z,93.20
2018-05-03T05:46:23.642Z,93.20
2018-05-03T05:48:52.326Z,93.50
2018-05-03T05:51:21.884Z,93.60
2018-05-03T05:53:50.669Z,93.60
2018-05-03T05:56:20.804Z,93.00
2018-05-03T05:58:50.924Z,93.40
2018-05-03T06:01:20.333Z,93.40
2018-05-03T06:03:49.017Z,93.10
2018-05-03T06:06:18.028Z,93.20
2018-05-03T06:08:47.119Z,93.40
2018-05-03T06:11:15.894Z,93.00
2018-05-03T06:13:45.252Z,91.90
2018-05-03T06:16:14.012Z,91.90
2018-05-03T06:18:42.653Z,91.60
2018-05-03T06:21:12.138Z,91.40
2018-05-03T06:23:42.922Z,91.50
2018-05-03T06:26:13.113Z,91.30
2018-05-03T06:28:41.890Z,91.20
2018-05-03T06:31:10.554Z,91.40
2018-05-03T06:33:39.223Z,91.50
2018-05-03T06:36:07.805Z,92.00
2018-05-03T06:38:36.403Z,92.40
2018-05-03T06:41:05.980Z,92.30
2018-05-03T06:43:34.832Z,92.20
2018-05-03T06:46:04.256Z,92.60
2018-05-03T06:48:33.930Z,92.70
2018-05-03T06:51:02.536Z,92.60
2018-05-03T06:53:31.390Z,92.60
2018-05-03T06:56:01.084Z,92.70
2018-05-03T06:58:30.255Z,92.80
2018-05-03T07:01:03.415Z,94.20
2018-05-03T07:03:32.103Z,94.20
2018-05-03T07:06:00.731Z,94.10
2018-05-03T07:08:30.097Z,94.30
2018-05-03T07:10:59.625Z,93.90
2018-05-03T07:13:29.034Z,93.40
2018-05-03T07:15:59.825Z,93.30
2018-05-03T07:18:28.758Z,93.90
2018-05-03T07:21:14.635Z,92.80
2018-05-03T07:23:43.612Z,92.00
2018-05-03T07:26:15.591Z,91.40
2018-05-03T07:28:45.008Z,85.70
2018-05-03T07:31:13.769Z,85.70
2018-05-03T07:33:42.669Z,85.30
2018-05-03T07:36:12.049Z,85.70
2018-05-03T07:38:41.145Z,83.70
2018-05-03T07:41:09.940Z,83.80
2018-05-03T07:43:38.624Z,85.00
2018-05-03T07:46:07.577Z,84.20
2018-05-03T07:48:36.394Z,85.80
2018-05-03T07:51:05.495Z,86.40
2018-05-03T07:53:34.328Z,84.10
2018-05-03T07:56:03.077Z,85.40
2018-05-03T07:58:31.875Z,84.40
2018-05-03T08:01:01.338Z,82.80
2018-05-03T08:03:30.143Z,82.70
2018-05-03T08:05:59.580Z,85.50
2018-05-03T08:08:28.492Z,85.80
2018-05-03T08:10:57.844Z,82.50
2018-05-03T08:13:26.619Z,82.10
2018-05-03T08:15:55.597Z,81.80
2018-05-03T08:18:24.445Z,82.30
2018-05-03T08:20:53.155Z,82.30
2018-05-03T08:23:22.070Z,83.60
2018-05-03T08:25:50.950Z,85.00
2018-05-03T08:28:19.869Z,86.50
2018-05-03T08:30:48.598Z,85.70
2018-05-03T08:33:17.246Z,87.10
2018-05-03T08:35:46.675Z,86.70
2018-05-03T08:38:16.562Z,88.40
2018-05-03T08:40:46.934Z,89.20
2018-05-03T08:43:15.820Z,89.20
2018-05-03T08:45:44.541Z,88.40
2018-05-03T08:48:13.208Z,89.00
2018-05-03T08:50:42.159Z,88.00
2018-05-03T08:53:10.904Z,87.80
2018-05-03T08:55:39.793Z,87.10
2018-05-03T09:00:43.340Z,86.90
2018-05-03T09:03:12.085Z,86.80
2018-05-03T09:05:41.043Z,86.20
2018-05-03T09:08:10.240Z,86.40
2018-05-03T09:10:39.856Z,86.30
2018-05-03T09:13:09.394Z,86.20
2018-05-03T09:15:38.044Z,86.20
2018-05-03T09:18:06.693Z,85.40
2018-05-03T09:20:36.210Z,85.60
2018-05-03T09:23:05.687Z,85.90
2018-05-03T09:25:34.384Z,85.70
2018-05-03T09:28:03.198Z,86.20
2018-05-03T09:30:31.962Z,87.20
2018-05-03T09:33:01.331Z,87.60
2018-05-03T09:35:30.303Z,86.90
2018-05-03T09:38:00.609Z,85.20
2018-05-03T09:40:29.666Z,85.10
2018-05-03T09:42:58.332Z,85.40
2018-05-03T09:45:26.968Z,85.70
2018-05-03T09:47:56.482Z,87.80
2018-05-03T09:50:25.267Z,87.70
2018-05-03T09:52:54.804Z,90.70
2018-05-03T09:55:23.756Z,90.70
2018-05-03T09:57:54.479Z,92.10
2018-05-03T10:00:24.032Z,92.10
2018-05-03T10:02:53.742Z,92.20
2018-05-03T10:05:22.998Z,92.30
2018-05-03T10:07:52.042Z,93.00
2018-05-03T10:10:20.735Z,93.30
2018-05-03T10:12:49.392Z,93.10
2018-05-03T10:15:18.562Z,93.70
2018-05-03T10:17:47.292Z,94.10
2018-05-03T10:20:16.499Z,93.90
2018-05-03T10:22:45.189Z,94.30
2018-05-03T10:25:17.858Z,94.40
2018-05-03T10:27:47.248Z,94.90
2018-05-03T10:30:16.678Z,94.90
2018-05-03T10:32:47.152Z,95.40
2018-05-03T10:35:16.612Z,95.70
2018-05-03T10:37:45.654Z,96.30
2018-05-03T10:40:14.571Z,95.80
2018-05-03T10:42:43.384Z,96.40
2018-05-03T10:45:12.224Z,96.80
2018-05-03T10:47:41.604Z,97.60
2018-05-03T10:50:10.320Z,97.60
2018-05-03T10:52:39.181Z,97.40
2018-05-03T10:55:08.178Z,97.50
2018-05-03T10:57:37.855Z,98.00
2018-05-03T11:00:06.564Z,98.00
2018-05-03T11:02:35.790Z,98.10
2018-05-03T11:05:05.287Z,98.50
2018-05-03T11:07:34.254Z,99.10
2018-05-03T11:10:03.041Z,99.40
2018-05-03T11:12:31.964Z,99.00
2018-05-03T11:15:00.628Z,99.70
2018-05-03T11:17:29.398Z,99.70
2018-05-03T11:19:58.164Z,99.10
2018-05-03T11:22:26.883Z,98.90
2018-05-03T11:24:55.529Z,99.40
2018-05-03T11:27:24.283Z,99.40
2018-05-03T11:29:52.939Z,98.80
2018-05-03T11:32:22.038Z,98.50
2018-05-03T11:34:51.324Z,99.20
2018-05-03T11:37:20.785Z,99.40
2018-05-03T11:39:59.800Z,98.80
2018-05-03T11:42:30.407Z,98.60
2018-05-03T11:45:09.074Z,99.00
2018-05-03T11:47:38.238Z,99.00
2018-05-03T11:50:08.636Z,99.90
2018-05-03T11:52:37.545Z,99.90
2018-05-03T11:55:06.332Z,99.90
2018-05-03T11:57:35.718Z,99.90
2018-05-03T12:00:04.408Z,99.90
2018-05-03T12:02:34.509Z,99.90
2018-05-03T12:05:03.147Z,99.40
2018-05-03T12:07:32.023Z,99.90
2018-05-03T12:10:01.673Z,99.70
2018-05-03T12:12:30.369Z,99.90
2018-05-03T12:14:59.420Z,99.90
2018-05-03T12:17:29.648Z,99.30
2018-05-03T12:19:59.521Z,98.90
2018-05-03T12:22:28.553Z,99.30
2018-05-03T12:24:58.042Z,97.50
2018-05-03T12:27:27.408Z,97.50
2018-05-03T12:29:56.261Z,98.80
2018-05-03T12:32:24.894Z,98.10
2018-05-03T12:34:53.676Z,98.60
2018-05-03T12:37:22.388Z,99.10
2018-05-03T12:39:51.248Z,99.00
2018-05-03T12:42:20.786Z,98.20
2018-05-03T12:44:50.454Z,98.40
2018-05-03T12:47:20.494Z,98.40
2018-05-03T12:49:50.422Z,98.70
2018-05-03T12:52:19.315Z,98.60
2018-05-03T12:54:48.016Z,98.80
2018-05-03T12:57:16.786Z,98.80
2018-05-03T12:59:46.029Z,98.90
2018-05-03T13:02:16.580Z,99.60
2018-05-03T13:04:46.263Z,99.50
2018-05-03T13:07:15.184Z,99.50
2018-05-03T13:09:44.212Z,99.90
2018-05-03T13:12:13.032Z,99.50
2018-05-03T13:14:43.137Z,98.50
2018-05-03T13:17:12.883Z,98.50
2018-05-03T13:19:42.058Z,98.50
2018-05-03T13:22:10.879Z,98.40
2018-05-03T13:24:41.227Z,97.80
2018-05-03T13:27:10.556Z,96.90
2018-05-03T13:29:41.210Z,93.20
2018-05-03T13:32:11.311Z,92.20
2018-05-03T13:34:40.051Z,92.10
2018-05-03T13:37:08.931Z,91.30
2018-05-03T13:39:38.959Z,90.60
2018-05-03T13:42:09.333Z,84.90
2018-05-03T13:44:38.828Z,84.90
2018-05-03T13:47:08.669Z,87.10
2018-05-03T13:49:38.224Z,83.00
2018-05-03T13:52:07.113Z,82.90
2018-05-03T13:54:35.913Z,81.70
2018-05-03T13:57:05.502Z,77.60
2018-05-03T13:59:34.598Z,77.70
2018-05-03T14:02:03.431Z,78.70
2018-05-03T14:04:32.380Z,76.90
2018-05-03T14:07:02.110Z,72.30
2018-05-03T14:09:31.065Z,72.30
2018-05-03T14:12:01.051Z,73.10
2018-05-03T14:14:31.102Z,70.30
2018-05-03T14:17:00.049Z,70.20
2018-05-03T14:19:29.394Z,71.40
2018-05-03T14:21:58.203Z,69.80
2018-05-03T14:24:27.111Z,69.70
2018-05-03T14:26:56.187Z,69.10
2018-05-03T14:29:25.126Z,66.60
2018-05-03T14:31:54.087Z,68.70
2018-05-03T14:34:23.469Z,68.00
2018-05-03T14:36:52.031Z,68.00
2018-05-03T14:39:23.038Z,67.20
2018-05-03T14:41:52.828Z,67.10
2018-05-03T14:44:22.244Z,65.90
2018-05-03T14:46:51.720Z,67.90
2018-05-03T14:49:20.334Z,67.90
2018-05-03T14:51:48.998Z,70.00
2018-05-03T14:54:17.778Z,71.40
2018-05-03T14:56:47.184Z,73.00
2018-05-03T14:59:15.992Z,73.00
2018-05-03T15:01:45.408Z,73.60
2018-05-03T15:04:14.328Z,73.10
2018-05-03T15:06:43.826Z,74.70
2018-05-03T15:09:13.872Z,74.60
2018-05-03T15:11:43.727Z,75.90
2018-05-03T15:14:14.628Z,76.30
2018-05-03T15:16:44.163Z,75.40
2018-05-03T15:19:13.014Z,76.30
2018-05-03T15:21:43.444Z,77.20
2018-05-03T15:24:13.156Z,77.10
2018-05-03T15:26:42.158Z,77.10
2018-05-03T15:29:11.083Z,77.50
2018-05-03T15:31:40.009Z,77.40
2018-05-03T15:34:11.116Z,78.10
2018-05-03T15:36:41.753Z,78.40
2018-05-03T15:39:11.127Z,78.30
2018-05-03T15:41:39.818Z,78.10
2018-05-03T15:44:08.583Z,78.20
2018-05-03T15:46:37.281Z,78.80
2018-05-03T15:49:06.152Z,78.40
2018-05-03T15:51:34.992Z,78.30
2018-05-03T15:54:03.691Z,78.60
2018-05-03T15:56:32.390Z,77.70
2018-05-03T15:59:02.106Z,77.80
2018-05-03T16:01:32.593Z,76.70
2018-05-03T16:04:01.364Z,76.90
2018-05-03T16:06:30.384Z,76.80
2018-05-03T16:09:00.212Z,76.60
2018-05-03T16:11:28.982Z,77.20
2018-05-03T16:13:58.064Z,77.10
2018-05-03T16:16:27.023Z,77.40
2018-05-03T16:18:57.318Z,78.60
2018-05-03T16:21:26.367Z,78.20
2018-05-03T16:23:55.337Z,77.70
2018-05-03T16:26:24.570Z,77.60
2018-05-03T16:28:53.797Z,78.00
2018-05-03T16:31:24.272Z,78.50
2018-05-03T16:33:55.892Z,79.10
2018-05-03T16:36:25.724Z,79.10
2018-05-03T16:38:55.687Z,79.30
2018-05-03T16:41:25.087Z,79.20
2018-05-03T16:43:54.200Z,79.00
2018-05-03T16:46:23.789Z,80.50
2018-05-03T16:48:54.511Z,81.20
2018-05-03T16:51:27.957Z,81.10
2018-05-03T16:53:59.370Z,83.10
2018-05-03T16:56:28.927Z,83.60
2018-05-03T16:58:58.158Z,84.30
2018-05-03T17:01:28.348Z,84.40
2018-05-03T17:03:57.735Z,86.10
2018-05-03T17:06:26.817Z,88.90
2018-05-03T17:08:55.566Z,90.30
2018-05-03T17:11:24.517Z,92.20
2018-05-03T17:13:53.465Z,93.30
2018-05-03T17:16:22.864Z,95.20
2018-05-03T17:18:51.579Z,95.10
2018-05-03T17:21:20.568Z,95.90
2018-05-03T17:23:50.747Z,96.40
2018-05-03T17:26:29.482Z,96.80
2018-05-03T17:28:58.609Z,97.00
2018-05-03T17:31:35.698Z,97.90
2018-05-03T17:34:05.008Z,99.10
2018-05-03T17:36:34.286Z,99.90
2018-05-03T17:39:03.463Z,98.50
2018-05-03T17:41:32.982Z,98.80
2018-05-03T17:44:02.738Z,96.60
2018-05-03T17:46:32.312Z,97.30
2018-05-03T17:49:01.126Z,97.30
2018-05-03T17:51:29.894Z,96.10
2018-05-03T17:54:01.762Z,95.00
2018-05-03T17:56:30.496Z,95.00
2018-05-03T17:58:59.294Z,95.60
2018-05-03T18:01:28.682Z,93.30
2018-05-03T18:03:57.369Z,93.30
2018-05-03T18:06:26.101Z,93.20
2018-05-03T18:08:55.926Z,94.00
2018-05-03T18:11:25.379Z,95.30
2018-05-03T18:13:55.089Z,95.10
2018-05-03T18:16:24.275Z,95.00
2018-05-03T18:18:53.198Z,94.90
2018-05-03T18:21:21.966Z,94.40
2018-05-03T18:23:50.717Z,93.50
2018-05-03T18:26:19.442Z,94.00
2018-05-03T18:28:49.049Z,93.10
2018-05-03T18:31:17.690Z,94.10
2018-05-03T18:33:48.034Z,95.50
2018-05-03T18:36:17.615Z,96.80
2018-05-03T18:38:46.903Z,96.80
2018-05-03T18:41:16.771Z,97.70
2018-05-03T18:43:46.244Z,97.70
2018-05-03T18:46:16.440Z,98.70
2018-05-03T18:48:45.723Z,99.80
2018-05-03T18:51:15.472Z,99.90
2018-05-03T18:53:44.678Z,99.90
2018-05-03T18:56:14.523Z,99.90
2018-05-03T18:58:43.464Z,99.90
2018-05-03T19:01:17.255Z,99.90
2018-05-03T19:03:47.676Z,99.90
2018-05-03T19:06:19.005Z,99.90
2018-05-03T19:08:48.770Z,99.90
2018-05-03T19:11:18.578Z,99.90
2018-05-03T19:13:49.552Z,99.90
2018-05-03T19:16:19.194Z,99.90
2018-05-03T19:18:52.460Z,99.90
2018-05-03T19:21:23.518Z,99.90
2018-05-03T19:23:53.584Z,99.90
2018-05-03T19:26:24.802Z,99.90
2018-05-03T19:28:54.061Z,99.90
2018-05-03T19:31:29.256Z,99.90
2018-05-03T19:33:59.397Z,99.90
2018-05-03T19:36:29.369Z,99.90
2018-05-03T19:38:59.400Z,99.90
2018-05-03T19:41:36.277Z,99.90
2018-05-03T19:44:06.232Z,99.90
2018-05-03T19:46:42.125Z,99.90
2018-05-03T19:49:12.348Z,99.90
2018-05-03T19:51:41.547Z,99.90
2018-05-03T19:54:11.028Z,99.90
2018-05-03T19:56:42.562Z,99.90
2018-05-03T19:59:13.079Z,99.90
2018-05-03T20:01:43.821Z,99.90
2018-05-03T20:07:40.533Z,99.90
2018-05-03T20:10:31.713Z,99.60
2018-05-03T20:13:02.776Z,99.20
2018-05-03T20:15:36.630Z,99.20
2018-05-03T20:18:06.269Z,99.40
2018-05-03T20:20:36.487Z,98.60
2018-05-03T20:23:08.836Z,98.20
2018-05-03T20:25:38.534Z,98.30
2018-05-03T20:28:07.435Z,97.50
2018-05-03T20:30:41.057Z,97.50
2018-05-03T20:33:11.457Z,97.50
2018-05-03T20:35:40.389Z,97.60
2018-05-03T20:38:10.180Z,97.90
2018-05-03T20:40:39.995Z,97.90
2018-05-03T20:43:09.673Z,98.00
2018-05-03T20:45:39.591Z,97.80
2018-05-03T20:48:08.871Z,98.20
2018-05-03T20:50:37.983Z,98.10
2018-05-03T20:53:08.163Z,98.00
2018-05-03T20:55:37.008Z,98.00
2018-05-03T20:58:06.834Z,98.30
2018-05-03T21:00:37.852Z,98.20
2018-05-03T21:03:06.792Z,98.20
2018-05-03T21:05:39.786Z,98.50
2018-05-03T21:08:10.988Z,98.60
2018-05-03T21:10:40.972Z,98.10
2018-05-03T21:13:10.357Z,98.20
2018-05-03T21:15:39.518Z,98.20
2018-05-03T21:18:08.329Z,98.30
2018-05-03T21:20:37.447Z,98.20
2018-05-03T21:23:07.127Z,98.10
2018-05-03T21:25:36.814Z,98.10
2018-05-03T21:28:05.647Z,98.10
2018-05-03T21:30:35.705Z,98.10
2018-05-03T21:33:06.923Z,98.60
2018-05-03T21:35:35.932Z,98.50
2018-05-03T21:38:04.752Z,98.60
2018-05-03T21:43:30.602Z,98.50
2018-05-03T21:45:59.517Z,98.70
2018-05-03T21:48:28.618Z,98.90
2018-05-03T21:50:57.642Z,99.20
2018-05-03T21:53:26.637Z,99.10
2018-05-03T21:55:55.390Z,99.50
2018-05-03T21:58:24.682Z,99.10
2018-05-03T22:00:55.056Z,98.80
2018-05-03T22:03:26.114Z,98.00
2018-05-03T22:05:55.911Z,98.00
2018-05-03T22:08:25.416Z,98.10
2018-05-03T22:10:54.437Z,98.20
2018-05-03T22:13:23.168Z,98.40
2018-05-03T22:15:52.590Z,98.70
2018-05-03T22:18:28.033Z,98.90
2018-05-03T22:20:57.084Z,99.20
2018-05-03T22:23:28.403Z,99.50
2018-05-03T22:25:57.859Z,99.90
2018-05-03T22:40:25.830Z,99.90
2018-05-03T22:42:55.273Z,99.90
2018-05-03T22:45:24.109Z,99.90
2018-05-03T22:47:53.107Z,99.90
2018-05-03T22:50:22.338Z,99.90
2018-05-03T22:52:51.217Z,99.90
2018-05-03T22:55:19.842Z,99.90
2018-05-03T22:57:48.516Z,99.90
2018-05-03T23:00:18.011Z,99.90
2018-05-03T23:02:46.629Z,99.90
2018-05-03T23:05:15.436Z,99.90
2018-05-03T23:07:44.111Z,99.90
2018-05-03T23:10:12.915Z,99.90
2018-05-03T23:12:41.634Z,99.90
2018-05-03T23:15:10.338Z,99.90
